Time;durP1;ratioP1;P1;durP2;ratioP2;P2;SDS_P1;SDS_P2;PMS_P1;PMS_P2;Temp;Humidity;BMP_temperature;BMP_pressure;BME280_temperature;BME280_humidity;BME280_pressure;Samples;Min_cycle;Max_cycle;Signal;HPM_P1;HPM_P2
2022/10/09 00:01:21;;;;;;;0.00;0.00;;;6.10;99.90;;;;;;4937711;29;20079;-79
2022/10/09 00:03:48;;;;;;;1.85;0.65;;;6.10;99.90;;;;;;4955181;29;20054;-79
2022/10/09 00:06:18;;;;;;;0.08;0.08;;;6.10;99.90;;;;;;4955067;29;20120;-78
2022/10/09 00:08:44;;;;;;;0.00;0.00;;;6.10;99.90;;;;;;4955375;29;20126;-78
2022/10/09 00:11:21;;;;;;;0.35;0.22;;;6.10;99.90;;;;;;4954700;29;20078;-78
2022/10/09 00:13:48;;;;;;;0.00;0.00;;;6.10;99.90;;;;;;4938267;29;20399;-79
2022/10/09 00:16:15;;;;;;;0.00;0.00;;;6.10;99.90;;;;;;4955028;28;20043;-78
2022/10/09 00:18:41;;;;;;;0.00;0.00;;;6.00;99.90;;;;;;4955032;29;20177;-78
2022/10/09 00:21:20;;;;;;;0.03;0.03;;;6.10;99.90;;;;;;4955216;29;20455;-78
2022/10/09 00:23:47;;;;;;;0.95;0.52;;;6.00;99.90;;;;;;4954885;29;20071;-77
2022/10/09 00:26:12;;;;;;;0.00;0.00;;;6.00;99.90;;;;;;4955436;28;20063;-78
2022/10/09 00:28:38;;;;;;;0.00;0.00;;;6.00;99.90;;;;;;4968875;28;20122;-79
2022/10/09 00:31:06;;;;;;;0.00;0.00;;;6.00;99.90;;;;;;4975002;28;20054;-78
2022/10/09 00:33:32;;;;;;;0.00;0.00;;;6.00;99.90;;;;;;4974645;28;20034;-79
2022/10/09 00:36:00;;;;;;;0.00;0.00;;;6.00;99.90;;;;;;4974851;28;20047;-78
2022/10/09 00:38:27;;;;;;;0.43;0.28;;;5.90;99.90;;;;;;4974307;28;20442;-78
2022/10/09 00:40:53;;;;;;;0.00;0.00;;;5.80;99.90;;;;;;4974213;28;20122;-78
2022/10/09 00:43:36;;;;;;;0.00;0.00;;;5.80;99.90;;;;;;4974380;28;20081;-78
2022/10/09 00:46:03;;;;;;;2.38;1.35;;;5.70;99.90;;;;;;4975471;28;20491;-78
2022/10/09 00:48:29;;;;;;;0.00;0.00;;;5.70;99.90;;;;;;4978244;28;20106;-79
2022/10/09 00:50:59;;;;;;;3.92;2.03;;;5.70;99.90;;;;;;4977386;28;20078;-79
2022/10/09 00:53:27;;;;;;;0.00;0.00;;;5.70;99.90;;;;;;4978131;28;20039;-78
2022/10/09 00:55:53;;;;;;;0.00;0.00;;;5.70;99.90;;;;;;4978102;28;20043;-79
2022/10/09 00:58:20;;;;;;;0.00;0.00;;;5.70;99.90;;;;;;4977795;28;20121;-79
2022/10/09 01:00:46;;;;;;;0.00;0.00;;;5.90;99.90;;;;;;4983972;28;20054;-79
2022/10/09 01:03:12;;;;;;;0.03;0.03;;;5.60;99.90;;;;;;4977820;28;20047;-78
2022/10/09 01:06:18;;;;;;;0.15;0.15;;;5.60;99.90;;;;;;4977103;28;20069;-77
2022/10/09 01:09:05;;;;;;;0.00;0.00;;;5.60;99.90;;;;;;4978075;28;20058;-78
2022/10/09 01:12:01;;;;;;;0.00;0.00;;;5.70;99.90;;;;;;4960218;28;20051;-79
2022/10/09 01:14:31;;;;;;;2.33;0.85;;;5.60;99.90;;;;;;4977119;28;20102;-79
2022/10/09 01:16:57;;;;;;;0.10;0.10;;;5.60;99.90;;;;;;4977665;28;20379;-77
2022/10/09 01:19:47;;;;;;;0.00;0.00;;;5.70;99.90;;;;;;4977332;28;20046;-77
2022/10/09 01:22:29;;;;;;;0.10;0.10;;;5.60;99.90;;;;;;4977502;28;20529;-79
2022/10/09 01:25:09;;;;;;;0.00;0.00;;;5.70;99.90;;;;;;4977907;28;20047;-77
2022/10/09 01:27:36;;;;;;;0.10;0.10;;;5.60;99.90;;;;;;4977265;28;20530;-77
2022/10/09 01:30:07;;;;;;;0.00;0.00;;;5.70;99.90;;;;;;4977499;28;20054;-78
2022/10/09 01:32:36;;;;;;;2.72;1.27;;;5.60;99.90;;;;;;4960179;28;20052;-77
2022/10/09 01:35:04;;;;;;;0.00;0.00;;;5.70;99.90;;;;;;4960010;28;20054;-78
2022/10/09 01:37:32;;;;;;;0.00;0.00;;;5.70;99.90;;;;;;4977093;28;20529;-77
2022/10/09 01:39:58;;;;;;;0.08;0.08;;;5.60;99.90;;;;;;4976543;28;20047;-80
2022/10/09 01:42:26;;;;;;;0.38;0.32;;;5.60;99.90;;;;;;4976838;28;20087;-77
2022/10/09 01:44:52;;;;;;;0.00;0.00;;;5.60;99.90;;;;;;4976854;28;20051;-76
2022/10/09 01:47:20;;;;;;;1.15;1.05;;;5.60;99.90;;;;;;4977125;28;20047;-77
2022/10/09 01:50:07;;;;;;;0.10;0.10;;;5.60;99.90;;;;;;4976776;28;20051;-78
2022/10/09 01:52:36;;;;;;;0.35;0.35;;;5.60;99.90;;;;;;4975740;28;20043;-78
2022/10/09 01:55:34;;;;;;;0.00;0.00;;;5.50;99.90;;;;;;4958750;28;20047;-77
2022/10/09 01:58:05;;;;;;;0.55;0.38;;;5.50;99.90;;;;;;4960229;28;20122;-78
2022/10/09 02:00:36;;;;;;;0.00;0.00;;;5.40;99.90;;;;;;5067243;23;20062;-88
2022/10/09 02:03:06;;;;;;;0.40;0.32;;;5.40;99.90;;;;;;4974815;28;20050;-88
2022/10/09 02:05:32;;;;;;;0.00;0.00;;;5.40;99.90;;;;;;5007442;28;20042;-88
2022/10/09 02:08:10;;;;;;;0.05;0.05;;;5.80;99.90;;;;;;5005687;28;20418;-87
2022/10/09 02:10:38;;;;;;;0.03;0.03;;;4.40;99.90;;;;;;5006967;28;20050;-88
2022/10/09 02:13:07;;;;;;;0.00;0.00;;;6.20;99.90;;;;;;5007869;28;20478;-87
2022/10/09 02:15:52;;;;;;;0.00;0.00;;;5.80;99.90;;;;;;4988930;28;20133;-87
2022/10/09 02:18:44;;;;;;;0.03;0.03;;;5.10;99.90;;;;;;4973934;28;20081;-87
2022/10/09 02:21:14;;;;;;;0.08;0.08;;;5.10;99.90;;;;;;4973852;28;20069;-88
2022/10/09 02:23:45;;;;;;;0.10;0.10;;;5.90;99.90;;;;;;4973932;28;20085;-89
2022/10/09 02:26:12;;;;;;;0.10;0.10;;;5.70;99.90;;;;;;4989869;28;20078;-87
2022/10/09 02:28:39;;;;;;;0.00;0.00;;;5.00;99.90;;;;;;4989145;28;20510;-87
2022/10/09 02:31:12;;;;;;;0.00;0.00;;;5.10;99.90;;;;;;4988459;28;20510;-88
2022/10/09 02:33:38;;;;;;;0.63;0.63;;;5.70;99.90;;;;;;4988974;28;20057;-87
2022/10/09 02:36:04;;;;;;;0.00;0.00;;;6.00;99.90;;;;;;4988991;28;20534;-87
2022/10/09 02:38:30;;;;;;;0.00;0.00;;;5.00;99.90;;;;;;4988740;28;20500;-88
2022/10/09 02:41:01;;;;;;;0.00;0.00;;;5.80;99.90;;;;;;5007306;28;20082;-88
2022/10/09 02:43:27;;;;;;;0.30;0.17;;;5.90;99.90;;;;;;4989983;28;20046;-88
2022/10/09 02:45:53;;;;;;;0.00;0.00;;;6.10;99.90;;;;;;4989068;28;20072;-88
2022/10/09 02:48:18;;;;;;;0.10;0.10;;;5.30;99.90;;;;;;4972891;28;20042;-88
2022/10/09 02:50:44;;;;;;;0.17;0.17;;;5.00;99.90;;;;;;4994473;28;20066;-87
2022/10/09 02:53:10;;;;;;;0.00;0.00;;;5.10;99.90;;;;;;5010844;28;20060;-88
2022/10/09 02:55:39;;;;;;;0.00;0.00;;;6.00;99.90;;;;;;4978276;28;20087;-88
2022/10/09 02:58:04;;;;;;;0.20;0.20;;;5.80;99.90;;;;;;4999819;28;20038;-89
2022/10/09 03:00:30;;;;;;;0.00;0.00;;;5.10;99.90;;;;;;5000243;28;20034;-89
2022/10/09 03:02:56;;;;;;;0.13;0.13;;;5.00;99.90;;;;;;5000177;28;20034;-89
2022/10/09 03:05:22;;;;;;;1.63;0.30;;;4.80;99.90;;;;;;4998729;28;20046;-88
2022/10/09 03:07:50;;;;;;;0.00;0.00;;;5.00;99.90;;;;;;4996881;28;20065;-89
2022/10/09 03:10:20;;;;;;;0.00;0.00;;;5.00;99.90;;;;;;4980288;28;20102;-89
2022/10/09 03:12:48;;;;;;;0.10;0.10;;;5.40;99.90;;;;;;4980994;28;20043;-89
2022/10/09 03:15:15;;;;;;;0.00;0.00;;;4.70;99.90;;;;;;4994642;28;20132;-88
2022/10/09 03:17:40;;;;;;;0.00;0.00;;;5.10;99.90;;;;;;5008212;28;20133;-88
2022/10/09 03:20:07;;;;;;;0.00;0.00;;;5.70;99.90;;;;;;4990601;28;20050;-90
2022/10/09 03:22:32;;;;;;;0.28;0.28;;;5.00;99.90;;;;;;4991952;28;20050;-89
2022/10/09 03:24:58;;;;;;;1.77;0.82;;;5.00;99.90;;;;;;4975500;28;20050;-88
2022/10/09 03:27:24;;;;;;;0.10;0.10;;;4.90;99.90;;;;;;4990191;28;20060;-87
2022/10/09 03:29:50;;;;;;;0.00;0.00;;;4.90;99.90;;;;;;4991064;28;20057;-88
2022/10/09 03:32:15;;;;;;;0.65;0.65;;;4.30;99.90;;;;;;5008125;28;20042;-89
2022/10/09 03:34:41;;;;;;;0.82;0.40;;;4.70;99.90;;;;;;5007220;28;20104;-89
2022/10/09 03:37:07;;;;;;;0.30;0.30;;;4.80;99.90;;;;;;5008229;28;20038;-90
2022/10/09 03:39:35;;;;;;;0.68;0.68;;;6.00;99.90;;;;;;5006363;28;20473;-89
2022/10/09 03:42:08;;;;;;;0.10;0.10;;;4.90;99.90;;;;;;4990039;28;20058;-88
2022/10/09 03:44:34;;;;;;;0.05;0.05;;;6.10;99.90;;;;;;5010952;28;20177;-88
2022/10/09 03:47:05;;;;;;;0.00;0.00;;;4.80;99.90;;;;;;5013306;28;20073;-88
2022/10/09 03:49:31;;;;;;;0.22;0.22;;;5.20;99.90;;;;;;4996932;28;20034;-89
2022/10/09 03:52:00;;;;;;;0.00;0.00;;;4.90;99.90;;;;;;4980442;28;20042;-89
2022/10/09 03:54:25;;;;;;;0.00;0.00;;;5.90;99.90;;;;;;4979689;28;20107;-88
2022/10/09 03:56:51;;;;;;;0.03;0.03;;;4.60;99.90;;;;;;4969562;28;20065;-89
2022/10/09 03:59:17;;;;;;;0.00;0.00;;;4.90;99.90;;;;;;4967644;28;20113;-89
2022/10/09 04:01:53;;;;;;;0.43;0.40;;;5.60;99.90;;;;;;4983556;28;20100;-89
2022/10/09 04:04:18;;;;;;;;;;;4.90;99.90;;;;;;4985259;28;20048;-89
2022/10/09 04:06:44;;;;;;;0.47;0.47;;;5.70;99.90;;;;;;4984142;28;20865;-89
2022/10/09 04:09:10;;;;;;;0.00;0.00;;;4.80;99.90;;;;;;4984120;28;20046;-88
2022/10/09 04:11:45;;;;;;;0.10;0.10;;;4.80;99.90;;;;;;4983680;28;20035;-90
2022/10/09 04:14:13;;;;;;;0.10;0.10;;;4.00;99.90;;;;;;4968248;28;20042;-88
2022/10/09 04:16:39;;;;;;;0.50;0.35;;;5.10;99.90;;;;;;4967716;28;20073;-89
2022/10/09 04:19:07;;;;;;;0.00;0.00;;;4.60;99.90;;;;;;4969463;28;20494;-89
2022/10/09 04:21:38;;;;;;;0.00;0.00;;;5.80;99.90;;;;;;4984794;28;20046;-89
2022/10/09 04:24:07;;;;;;;0.30;0.25;;;5.70;99.90;;;;;;4982610;28;20058;-90
2022/10/09 04:26:33;;;;;;;2.60;1.17;;;4.70;99.90;;;;;;4983844;28;20057;-89
2022/10/09 04:29:02;;;;;;;0.73;0.63;;;4.70;99.90;;;;;;5003497;28;20047;-90
2022/10/09 04:31:28;;;;;;;0.10;0.10;;;4.70;99.90;;;;;;5006096;28;20102;-90
2022/10/09 04:33:54;;;;;;;0.63;0.52;;;4.70;99.90;;;;;;4987693;28;20054;-89
2022/10/09 04:36:20;;;;;;;0.70;0.70;;;4.70;99.90;;;;;;4989353;28;20049;-88
2022/10/09 04:38:46;;;;;;;0.10;0.10;;;4.60;99.90;;;;;;4972353;28;20042;-88
2022/10/09 04:41:12;;;;;;;0.00;0.00;;;4.60;99.90;;;;;;4972990;28;20118;-89
2022/10/09 04:43:38;;;;;;;0.15;0.15;;;5.30;99.90;;;;;;4990383;28;20038;-89
2022/10/09 04:46:10;;;;;;;0.10;0.10;;;4.50;99.90;;;;;;4989561;28;20109;-89
2022/10/09 04:48:45;;;;;;;0.52;0.52;;;5.50;99.90;;;;;;4974305;28;20049;-90
2022/10/09 04:51:15;;;;;;;0.10;0.10;;;4.40;99.90;;;;;;4973699;28;20051;-89
2022/10/09 04:53:47;;;;;;;0.52;0.52;;;4.30;99.90;;;;;;4989122;28;20145;-90
2022/10/09 04:56:16;;;;;;;0.52;0.45;;;4.80;99.90;;;;;;4989798;28;20063;-88
2022/10/09 04:58:42;;;;;;;0.00;0.00;;;5.40;99.90;;;;;;4988570;28;20057;-88
2022/10/09 05:01:15;;;;;;;0.00;0.00;;;4.40;99.90;;;;;;4988509;28;20138;-89
2022/10/09 05:03:40;;;;;;;0.00;0.00;;;4.50;99.90;;;;;;4972407;28;20085;-89
2022/10/09 05:06:09;;;;;;;0.00;0.00;;;4.50;99.90;;;;;;4988356;28;20440;-89
2022/10/09 05:08:35;;;;;;;0.00;0.00;;;4.50;99.90;;;;;;4972536;28;20055;-90
2022/10/09 05:11:07;;;;;;;0.00;0.00;;;4.30;99.90;;;;;;4989294;28;20052;-89
2022/10/09 05:13:36;;;;;;;0.88;0.52;;;4.60;99.90;;;;;;5006350;28;20035;-87
2022/10/09 05:16:06;;;;;;;0.13;0.13;;;5.10;99.90;;;;;;4988358;28;20390;-88
2022/10/09 05:18:32;;;;;;;0.00;0.00;;;4.40;99.90;;;;;;4996279;28;20054;-89
2022/10/09 05:21:07;;;;;;;0.10;0.10;;;4.70;99.90;;;;;;5015617;28;20085;-89
2022/10/09 05:23:38;;;;;;;0.52;0.40;;;4.60;99.90;;;;;;5015816;28;20029;-89
2022/10/09 05:26:13;;;;;;;0.38;0.30;;;5.00;99.90;;;;;;5010170;28;20035;-88
2022/10/09 05:28:42;;;;;;;3.10;1.88;;;3.70;99.90;;;;;;5013271;28;20046;-90
2022/10/09 05:31:09;;;;;;;0.20;0.20;;;5.20;99.90;;;;;;4976046;28;20106;-90
2022/10/09 05:33:35;;;;;;;0.00;0.00;;;5.00;99.90;;;;;;4994510;28;20090;-90
2022/10/09 05:36:06;;;;;;;0.25;0.25;;;5.20;99.90;;;;;;4994192;28;20035;-90
2022/10/09 05:38:44;;;;;;;0.63;0.63;;;4.50;99.90;;;;;;4994647;28;20152;-90
2022/10/09 05:41:12;;;;;;;0.00;0.00;;;4.50;99.90;;;;;;4993629;28;20043;-90
2022/10/09 05:43:47;;;;;;;0.05;0.05;;;5.00;99.90;;;;;;4995692;28;20046;-90
2022/10/09 05:46:22;;;;;;;1.38;1.27;;;5.10;99.90;;;;;;4995832;28;20049;-90
2022/10/09 05:48:56;;;;;;;0.00;0.00;;;4.50;99.90;;;;;;5010448;28;20477;-88
2022/10/09 05:51:29;;;;;;;1.00;0.60;;;4.50;99.90;;;;;;4993569;28;20110;-88
2022/10/09 05:53:58;;;;;;;1.88;0.70;;;4.60;99.90;;;;;;4992708;28;20053;-89
2022/10/09 05:56:29;;;;;;;0.22;0.20;;;5.10;99.90;;;;;;4992829;28;20046;-90
2022/10/09 05:59:03;;;;;;;0.15;0.15;;;5.70;99.90;;;;;;4993010;28;20046;-89
2022/10/09 06:01:32;;;;;;;0.10;0.10;;;4.00;99.90;;;;;;4991590;28;20070;-90
2022/10/09 06:04:04;;;;;;;0.20;0.20;;;5.70;99.90;;;;;;4975478;28;20050;-90
2022/10/09 06:06:38;;;;;;;0.80;0.52;;;4.70;99.90;;;;;;4990764;28;20042;-89
2022/10/09 06:09:05;;;;;;;0.00;0.00;;;5.60;99.90;;;;;;5008862;28;20050;-90
2022/10/09 06:11:33;;;;;;;0.20;0.20;;;5.70;99.90;;;;;;4991385;28;20035;-89
2022/10/09 06:14:01;;;;;;;0.10;0.10;;;4.50;99.90;;;;;;4991261;28;20035;-89
2022/10/09 06:16:47;;;;;;;0.08;0.08;;;3.50;99.90;;;;;;4990887;28;20046;-90
2022/10/09 06:19:15;;;;;;;1.45;0.98;;;5.40;99.90;;;;;;5006884;28;20049;-89
2022/10/09 06:21:44;;;;;;;0.60;0.47;;;5.00;99.90;;;;;;5008060;28;20042;-90
2022/10/09 06:24:24;;;;;;;0.15;0.10;;;4.70;99.90;;;;;;4974657;28;20065;-90
2022/10/09 06:26:53;;;;;;;0.10;0.10;;;5.40;99.90;;;;;;4975240;28;20050;-90
2022/10/09 06:29:19;;;;;;;0.00;0.00;;;4.80;99.90;;;;;;4991128;28;20041;-90
2022/10/09 06:31:44;;;;;;;0.13;0.10;;;4.50;99.90;;;;;;4979166;28;20039;-89
2022/10/09 06:34:17;;;;;;;0.38;0.38;;;4.60;99.90;;;;;;4997286;28;20045;-90
2022/10/09 06:36:50;;;;;;;0.10;0.10;;;4.50;99.90;;;;;;4993880;28;20042;-90
2022/10/09 06:39:59;;;;;;;0.45;0.20;;;4.70;99.90;;;;;;4994515;28;20054;-90
2022/10/09 06:42:27;;;;;;;0.10;0.10;;;5.20;99.90;;;;;;4992636;28;20126;-89
2022/10/09 06:44:55;;;;;;;3.63;0.90;;;4.20;99.90;;;;;;5011722;28;20049;-90
2022/10/09 06:47:24;;;;;;;0.57;0.55;;;5.50;99.90;;;;;;4996387;28;20047;-88
2022/10/09 06:49:50;;;;;;;0.40;0.20;;;5.00;99.90;;;;;;4990863;28;20085;-89
2022/10/09 06:52:25;;;;;;;0.38;0.30;;;4.80;99.90;;;;;;4981759;28;20070;-89
2022/10/09 06:54:50;;;;;;;3.95;0.73;;;5.30;99.90;;;;;;4980792;28;20054;-90
2022/10/09 06:57:18;;;;;;;0.10;0.10;;;6.30;99.90;;;;;;4997314;28;20102;-89
2022/10/09 06:59:44;;;;;;;0.00;0.00;;;6.30;99.90;;;;;;4979699;28;20106;-90
2022/10/09 07:02:19;;;;;;;0.30;0.22;;;5.60;99.90;;;;;;4978782;28;20061;-90
2022/10/09 07:04:48;;;;;;;0.45;0.45;;;4.90;99.90;;;;;;4974130;28;20085;-89
2022/10/09 07:07:19;;;;;;;8.00;1.38;;;6.40;99.90;;;;;;4990292;28;20077;-90
2022/10/09 07:09:59;;;;;;;0.00;0.00;;;5.90;99.90;;;;;;4975407;28;20052;-90
2022/10/09 07:22:01;;;;;;;;;;;;;;;;;;;;;
2022/10/09 07:24:30;;;;;;;1.45;0.63;;;6.30;99.90;;;;;;4990695;28;20046;-89
2022/10/09 07:27:27;;;;;;;0.03;0.03;;;5.60;99.90;;;;;;4970257;28;20046;-89
2022/10/09 07:30:00;;;;;;;0.10;0.07;;;7.30;99.90;;;;;;4967358;28;20058;-89
2022/10/09 07:32:30;;;;;;;0.38;0.17;;;7.00;99.90;;;;;;4985302;28;20077;-89
2022/10/09 07:35:19;;;;;;;;;;;;;;;;;;;;;
2022/10/09 07:38:40;;;;;;;;;;;;;;;;;;;;;
2022/10/09 07:43:45;;;;;;;;;;;;;;;;;;;;;
2022/10/09 07:46:52;;;;;;;0.63;0.45;;;7.40;99.90;;;;;;5015960;28;20045;-90
2022/10/09 07:49:21;;;;;;;;;;;;;;;;;;;;;
2022/10/09 07:55:09;;;;;;;0.00;0.00;;;7.10;99.90;;;;;;4966399;28;20082;-90
2022/10/09 07:58:16;;;;;;;;;;;;;;;;;;;;;
2022/10/09 08:04:36;;;;;;;0.55;0.55;;;7.10;99.90;;;;;;4991434;28;20062;-91
2022/10/09 08:07:06;;;;;;;0.00;0.00;;;7.60;99.90;;;;;;4996592;28;20128;-89
2022/10/09 08:09:53;;;;;;;0.35;0.35;;;7.70;99.90;;;;;;4999836;28;20042;-90
2022/10/09 08:16:14;;;;;;;;;;;;;;;;;;;;;
2022/10/09 08:19:22;;;;;;;0.77;0.63;;;8.00;99.90;;;;;;4989421;28;20599;-90
2022/10/09 08:22:10;;;;;;;0.75;0.70;;;8.10;99.90;;;;;;4959608;28;20473;-90
2022/10/09 08:24:47;;;;;;;;;;;;;;;;;;;;;
2022/10/09 08:27:40;;;;;;;;;;;;;;;;;;;;;
2022/10/09 08:30:29;;;;;;;0.38;0.25;;;9.00;99.90;;;;;;4976825;28;20058;-90
2022/10/09 08:33:00;;;;;;;0.43;0.43;;;8.50;99.90;;;;;;4975370;28;20054;-89
2022/10/09 08:35:31;;;;;;;0.35;0.35;;;9.20;99.90;;;;;;4958394;28;20046;-88
2022/10/09 08:38:06;;;;;;;0.95;0.65;;;9.80;99.90;;;;;;4959336;28;20054;-90
2022/10/09 08:40:53;;;;;;;13.80;1.25;;;8.80;99.90;;;;;;4961537;28;20108;-89
2022/10/09 08:43:32;;;;;;;0.15;0.15;;;9.10;99.90;;;;;;4961564;28;20054;-89
2022/10/09 08:46:12;;;;;;;2.25;1.52;;;9.70;99.90;;;;;;4993642;28;20058;-88
2022/10/09 08:48:47;;;;;;;0.15;0.15;;;9.30;99.90;;;;;;4974300;28;20057;-88
2022/10/09 08:51:27;;;;;;;1.33;0.55;;;9.40;99.90;;;;;;4975507;28;20162;-88
2022/10/09 08:54:04;;;;;;;3.63;0.50;;;9.40;99.90;;;;;;4976102;28;20133;-89
2022/10/09 08:56:48;;;;;;;0.55;0.50;;;9.50;99.90;;;;;;4976664;28;20124;-88
2022/10/09 08:59:14;;;;;;;1.02;0.85;;;10.40;99.90;;;;;;4994649;28;20110;-88
2022/10/09 09:02:06;;;;;;;2.42;1.02;;;10.00;99.90;;;;;;4976439;28;20078;-89
2022/10/09 09:05:07;;;;;;;1.30;0.80;;;9.80;99.90;;;;;;4993673;28;20050;-89
2022/10/09 09:07:51;;;;;;;0.22;0.22;;;9.80;99.90;;;;;;4980052;28;20460;-89
2022/10/09 09:10:44;;;;;;;0.50;0.35;;;10.00;99.90;;;;;;4977355;28;20054;-88
2022/10/09 09:13:45;;;;;;;0.38;0.38;;;10.10;99.90;;;;;;4994854;28;20054;-87
2022/10/09 09:16:30;;;;;;;0.10;0.10;;;10.30;99.90;;;;;;4981976;28;20556;-87
2022/10/09 09:19:04;;;;;;;0.82;0.57;;;10.40;99.90;;;;;;4995468;28;20109;-88
2022/10/09 09:21:50;;;;;;;0.10;0.10;;;10.70;99.90;;;;;;4976740;28;20050;-86
2022/10/09 09:24:24;;;;;;;0.52;0.40;;;10.60;99.90;;;;;;4976161;28;20046;-87
2022/10/09 09:27:00;;;;;;;0.28;0.28;;;11.60;99.90;;;;;;4976678;28;20050;-87
2022/10/09 09:29:27;;;;;;;0.35;0.35;;;11.30;99.90;;;;;;4976575;28;20177;-87
2022/10/09 09:32:02;;;;;;;2.45;0.63;;;11.90;99.90;;;;;;4975529;28;20058;-87
2022/10/09 09:34:39;;;;;;;1.65;0.60;;;11.50;99.90;;;;;;4993403;28;20158;-89
2022/10/09 09:37:08;;;;;;;0.00;0.00;;;11.70;99.90;;;;;;4960290;28;20576;-87
2022/10/09 09:39:35;;;;;;;1.08;0.52;;;12.30;99.90;;;;;;4976182;28;20057;-86
2022/10/09 09:42:23;;;;;;;0.17;0.17;;;12.20;99.90;;;;;;4975351;28;20054;-87
2022/10/09 09:45:07;;;;;;;0.47;0.38;;;11.30;99.90;;;;;;4995690;28;20062;-87
2022/10/09 09:47:48;;;;;;;0.00;0.00;;;11.80;99.90;;;;;;4959690;28;20129;-87
2022/10/09 09:50:19;;;;;;;0.17;0.17;;;12.40;99.90;;;;;;4977145;28;20054;-87
2022/10/09 09:52:45;;;;;;;0.50;0.43;;;11.70;99.90;;;;;;4994801;28;20113;-88
2022/10/09 09:55:27;;;;;;;0.20;0.10;;;12.30;99.90;;;;;;4977631;28;20137;-87
2022/10/09 09:58:06;;;;;;;0.90;0.20;;;12.00;44.00;;;;;;4994731;28;20124;-87
2022/10/09 10:00:35;;;;;;;0.00;0.00;;;12.20;47.70;;;;;;4992694;28;20410;-86
2022/10/09 10:03:12;;;;;;;0.20;0.20;;;12.70;20.00;;;;;;4996999;28;20054;-87
2022/10/09 10:05:47;;;;;;;0.70;0.70;;;13.40;99.90;;;;;;4977437;28;20050;-88
2022/10/09 10:08:23;;;;;;;0.28;0.28;;;13.20;99.90;;;;;;4996188;28;20775;-85
2022/10/09 10:11:21;;;;;;;0.40;0.28;;;12.50;99.90;;;;;;5004754;28;20057;-86
2022/10/09 10:13:48;;;;;;;0.00;0.00;;;13.10;1.00;;;;;;4989862;28;20062;-86
2022/10/09 10:16:26;;;;;;;0.55;0.30;;;13.30;99.90;;;;;;4987792;28;20097;-86
2022/10/09 10:18:53;;;;;;;0.20;0.20;;;13.70;99.90;;;;;;4981665;28;20043;-88
2022/10/09 10:21:22;;;;;;;0.03;0.03;;;13.90;1.00;;;;;;4999549;28;20054;-88
2022/10/09 10:24:02;;;;;;;0.40;0.40;;;14.80;99.90;;;;;;4981872;28;20072;-88
2022/10/09 10:26:42;;;;;;;0.55;0.40;;;14.30;78.80;;;;;;4997146;28;20498;-88
2022/10/09 10:29:44;;;;;;;0.13;0.13;;;14.70;1.00;;;;;;4996652;28;20459;-87
2022/10/09 10:32:31;;;;;;;0.03;0.03;;;14.50;1.00;;;;;;4962337;28;20062;-89
2022/10/09 10:35:23;;;;;;;2.42;0.95;;;14.60;99.90;;;;;;4994481;28;20074;-88
2022/10/09 10:37:54;;;;;;;0.10;0.10;;;14.50;99.90;;;;;;4994221;28;20050;-88
2022/10/09 10:40:25;;;;;;;0.43;0.30;;;14.80;99.90;;;;;;4960085;28;20086;-88
2022/10/09 10:43:13;;;;;;;0.35;0.17;;;14.70;99.90;;;;;;4975569;28;20124;-87
2022/10/09 10:45:57;;;;;;;0.73;0.45;;;14.80;99.90;;;;;;4992497;28;20046;-87
2022/10/09 10:48:50;;;;;;;0.00;0.00;;;15.00;99.90;;;;;;4978410;28;20049;-88
2022/10/09 10:51:41;;;;;;;0.00;0.00;;;15.10;99.90;;;;;;4980782;28;20477;-87
2022/10/09 10:54:31;;;;;;;1.95;0.90;;;15.30;99.90;;;;;;4981941;28;20050;-88
2022/10/09 10:57:31;;;;;;;0.35;0.35;;;15.40;88.30;;;;;;4992691;28;20474;-89
2022/10/09 11:00:06;;;;;;;0.10;0.10;;;15.30;99.90;;;;;;4979872;28;20042;-88
2022/10/09 11:02:32;;;;;;;0.10;0.10;;;15.40;99.90;;;;;;4979957;28;20052;-91
2022/10/09 11:05:13;;;;;;;0.35;0.35;;;15.60;99.90;;;;;;4996913;28;20054;-89
2022/10/09 11:07:52;;;;;;;0.45;0.45;;;15.60;94.10;;;;;;4995611;28;20057;-89
2022/10/09 11:10:49;;;;;;;0.20;0.20;;;15.70;93.60;;;;;;4995211;28;20031;-90
2022/10/09 11:13:44;;;;;;;0.63;0.10;;;15.70;25.40;;;;;;4994546;28;20046;-88
2022/10/09 11:16:46;;;;;;;0.70;0.22;;;15.80;76.30;;;;;;5014296;28;20050;-91
2022/10/09 11:19:36;;;;;;;2.92;0.93;;;15.90;32.70;;;;;;4981422;28;20072;-90
2022/10/09 11:22:42;;;;;;;0.15;0.10;;;16.10;1.00;;;;;;4998759;28;20046;-89
2022/10/09 11:25:26;;;;;;;;;;;;;;;;;;;;;
2022/10/09 11:28:42;;;;;;;0.52;0.43;;;16.40;1.00;;;;;;4997146;28;20038;-90
2022/10/09 11:31:25;;;;;;;0.75;0.57;;;16.10;45.20;;;;;;4920251;29;20059;-90
2022/10/09 11:34:07;;;;;;;;;;;;;;;;;;;;;
2022/10/09 11:36:46;;;;;;;0.05;0.05;;;17.00;1.00;;;;;;5001542;28;20073;-89
2022/10/09 11:39:21;;;;;;;0.00;0.00;;;17.90;1.00;;;;;;4997875;28;20038;-89
2022/10/09 11:41:54;;;;;;;0.43;0.25;;;17.30;1.00;;;;;;4980673;28;20038;-90
2022/10/09 11:44:37;;;;;;;1.48;0.20;;;17.60;99.90;;;;;;4998212;28;20035;-90
2022/10/09 11:47:31;;;;;;;0.00;0.00;;;17.20;1.00;;;;;;4991801;28;20026;-89
2022/10/09 11:50:21;;;;;;;0.45;0.45;;;17.30;99.90;;;;;;4998094;28;20078;-89
2022/10/09 11:53:14;;;;;;;5.28;1.20;;;17.30;99.90;;;;;;4997440;28;20053;-90
2022/10/09 11:55:40;;;;;;;0.00;0.00;;;17.30;99.90;;;;;;4989877;28;20038;-89
2022/10/09 11:58:08;;;;;;;0.00;0.00;;;17.80;99.90;;;;;;4981546;28;20114;-90
2022/10/09 12:00:57;;;;;;;1.40;1.00;;;17.10;99.90;;;;;;4997914;28;20106;-90
2022/10/09 12:03:33;;;;;;;0.47;0.13;;;17.10;99.90;;;;;;5006032;28;20065;-88
2022/10/09 12:06:02;;;;;;;1.02;0.55;;;17.80;99.90;;;;;;4997256;28;20080;-90
2022/10/09 12:08:28;;;;;;;0.05;0.05;;;17.40;99.90;;;;;;5014375;28;20038;-91
2022/10/09 12:11:05;;;;;;;1.02;0.75;;;17.80;99.90;;;;;;5013754;28;20037;-89
2022/10/09 12:14:02;;;;;;;0.00;0.00;;;17.40;93.60;;;;;;4980356;28;20046;-89
2022/10/09 12:16:52;;;;;;;0.00;0.00;;;17.90;91.80;;;;;;5013255;28;20055;-92
2022/10/09 12:19:24;;;;;;;1.05;0.30;;;17.90;99.90;;;;;;4996741;28;20046;-90
2022/10/09 12:22:01;;;;;;;0.73;0.57;;;18.40;74.30;;;;;;4998016;28;20090;-90
2022/10/09 12:24:32;;;;;;;0.05;0.05;;;17.90;99.90;;;;;;5014115;28;20062;-90
2022/10/09 12:27:07;;;;;;;0.22;0.20;;;18.00;61.90;;;;;;4996956;28;20030;-90
2022/10/09 12:29:46;;;;;;;0.10;0.10;;;17.80;32.10;;;;;;4997355;28;20030;-90
2022/10/09 12:32:29;;;;;;;0.85;0.45;;;19.10;1.00;;;;;;4997286;28;20034;-91
2022/10/09 12:34:56;;;;;;;0.55;0.20;;;18.20;1.00;;;;;;4996664;28;20050;-89
2022/10/09 12:37:39;;;;;;;2.20;0.90;;;18.30;47.60;;;;;;4996529;28;20057;-90
2022/10/09 12:40:11;;;;;;;0.60;0.25;;;18.20;1.00;;;;;;4981050;28;20049;-89
2022/10/09 12:42:37;;;;;;;0.20;0.20;;;18.80;1.00;;;;;;5001115;28;20098;-89
2022/10/09 12:45:28;;;;;;;0.15;0.15;;;18.90;1.00;;;;;;5003144;28;20022;-89
2022/10/09 12:47:56;;;;;;;0.00;0.00;;;19.10;1.00;;;;;;5019617;28;20078;-89
2022/10/09 12:50:31;;;;;;;0.43;0.40;;;19.20;1.00;;;;;;4986474;28;20038;-90
2022/10/09 12:53:24;;;;;;;0.30;0.22;;;19.40;1.00;;;;;;5003108;28;20026;-89
2022/10/09 12:56:27;;;;;;;1.45;0.75;;;19.60;1.00;;;;;;5016796;28;20052;-89
2022/10/09 12:58:53;;;;;;;0.60;0.52;;;19.70;1.00;;;;;;5000959;28;20102;-89
2022/10/09 13:01:20;;;;;;;0.70;0.63;;;20.30;99.90;;;;;;4985841;28;20030;-89
2022/10/09 13:03:55;;;;;;;0.30;0.20;;;19.70;99.90;;;;;;5002358;28;20733;-89
2022/10/09 13:06:32;;;;;;;0.20;0.20;;;19.30;1.00;;;;;;5000826;28;20034;-89
2022/10/09 13:09:01;;;;;;;0.20;0.20;;;20.90;99.90;;;;;;5000830;28;20027;-88
2022/10/09 13:11:30;;;;;;;1.98;1.08;;;20.20;99.90;;;;;;4983707;28;20046;-90
2022/10/09 13:13:55;;;;;;;0.10;0.10;;;20.30;99.90;;;;;;4997046;28;20037;-89
2022/10/09 13:16:22;;;;;;;0.52;0.25;;;19.90;99.90;;;;;;4980852;28;20046;-89
2022/10/09 13:18:55;;;;;;;0.10;0.10;;;21.10;99.90;;;;;;4998212;28;20042;-90
2022/10/09 13:21:25;;;;;;;0.00;0.00;;;20.60;99.90;;;;;;4981880;28;20038;-89
2022/10/09 13:23:51;;;;;;;1.13;0.43;;;19.40;99.90;;;;;;5014694;28;20042;-89
2022/10/09 13:26:25;;;;;;;0.65;0.43;;;19.10;81.90;;;;;;4998995;28;20050;-89
2022/10/09 13:28:52;;;;;;;0.00;0.00;;;19.00;96.50;;;;;;5015416;28;20065;-89
2022/10/09 13:31:19;;;;;;;0.60;0.20;;;18.90;88.20;;;;;;5015306;28;20030;-88
2022/10/09 13:33:45;;;;;;;0.60;0.60;;;19.00;99.60;;;;;;4998425;28;20038;-89
2022/10/09 13:36:16;;;;;;;0.45;0.45;;;18.80;99.90;;;;;;4980769;28;20519;-88
2022/10/09 13:38:42;;;;;;;0.15;0.15;;;19.60;99.90;;;;;;4998153;28;20046;-87
2022/10/09 13:41:18;;;;;;;0.45;0.30;;;19.10;99.90;;;;;;4999977;28;20062;-90
2022/10/09 13:43:44;;;;;;;0.28;0.28;;;18.70;99.90;;;;;;5016395;28;20062;-89
2022/10/09 13:46:10;;;;;;;0.60;0.40;;;19.60;99.90;;;;;;4998314;28;20046;-88
2022/10/09 13:48:39;;;;;;;0.35;0.35;;;20.30;99.90;;;;;;4999166;28;20042;-89
2022/10/09 13:51:05;;;;;;;0.10;0.10;;;19.00;99.90;;;;;;5015833;28;20204;-90
2022/10/09 13:53:31;;;;;;;1.35;1.02;;;18.70;99.90;;;;;;4997336;28;20022;-89
2022/10/09 13:56:06;;;;;;;0.50;0.43;;;19.20;99.90;;;;;;5014535;28;20074;-89
2022/10/09 13:58:32;;;;;;;0.03;0.03;;;19.70;99.90;;;;;;5015112;28;20040;-89
2022/10/09 14:01:09;;;;;;;0.10;0.10;;;20.10;99.90;;;;;;5016717;28;20062;-88
2022/10/09 14:03:35;;;;;;;0.00;0.00;;;18.90;99.90;;;;;;5015938;28;20035;-89
2022/10/09 14:06:08;;;;;;;1.33;0.47;;;19.90;99.90;;;;;;5001303;28;20046;-89
2022/10/09 14:08:34;;;;;;;0.10;0.10;;;19.20;99.90;;;;;;4985088;28;20046;-88